Time;durP1;ratioP1;P1;durP2;ratioP2;P2;SDS_P1;SDS_P2;PMS_P1;PMS_P2;Temp;Humidity;BMP_temperature;BMP_pressure;BME280_temperature;BME280_humidity;BME280_pressure;Samples;Min_cycle;Max_cycle;Signal;HPM_P1;HPM_P2
2021/07/03 07:01:39;;;;;;;8.15;6.03;;;;;;;21.60;57.36;98868.81;5373702;23;20051;-73
2021/07/03 07:04:04;;;;;;;6.60;5.68;;;;;;;23.39;53.14;98854.50;4955716;28;20047;-74
2021/07/03 07:06:30;;;;;;;8.95;6.10;;;;;;;23.00;52.36;98866.00;4955569;28;20027;-74
2021/07/03 07:08:55;;;;;;;9.52;6.00;;;;;;;23.00;53.08;98864.19;4955816;28;20408;-74
2021/07/03 07:11:21;;;;;;;6.63;5.95;;;;;;;22.80;53.66;98865.50;4955505;28;20493;-74
2021/07/03 07:13:46;;;;;;;10.23;6.30;;;;;;;23.06;53.03;98869.09;4955971;29;20391;-74
2021/07/03 07:16:12;;;;;;;7.57;5.30;;;;;;;25.95;45.74;98860.22;4955540;29;20031;-74
2021/07/03 07:18:37;;;;;;;7.88;5.35;;;;;;;25.21;47.39;98859.81;4955479;29;20400;-75
2021/07/03 07:21:03;;;;;;;10.93;5.43;;;;;;;25.07;47.81;98857.34;4955538;29;20027;-74
2021/07/03 07:23:28;;;;;;;9.07;5.50;;;;;;;26.36;45.65;98864.84;4955342;29;20552;-77
2021/07/03 07:25:53;;;;;;;8.23;5.57;;;;;;;27.01;43.58;98856.88;4955395;29;20031;-74
2021/07/03 07:28:19;;;;;;;6.90;5.22;;;;;;;27.24;42.56;98849.63;4955014;29;20094;-74
2021/07/03 07:30:45;;;;;;;10.93;5.68;;;;;;;26.35;43.82;98852.53;4953959;29;20027;-73
2021/07/03 07:33:10;;;;;;;10.85;5.45;;;;;;;26.69;41.90;98849.78;4955338;29;20166;-71
2021/07/03 07:35:35;;;;;;;7.88;5.10;;;;;;;27.99;40.87;98851.09;4955074;29;20085;-70
2021/07/03 07:38:01;;;;;;;5.47;4.40;;;;;;;27.26;40.27;98843.19;4954914;29;20035;-71
2021/07/03 07:40:26;;;;;;;6.38;4.40;;;;;;;28.62;37.98;98838.28;4954959;29;20485;-71
2021/07/03 07:42:52;;;;;;;7.25;5.22;;;;;;;28.30;38.36;98843.88;4954937;29;20034;-70
2021/07/03 07:45:17;;;;;;;6.13;4.43;;;;;;;26.69;39.72;98843.59;4954914;29;20019;-70
2021/07/03 07:47:43;;;;;;;5.72;4.85;;;;;;;26.94;41.58;98839.75;4955021;29;20027;-71
2021/07/03 07:50:08;;;;;;;5.70;4.97;;;;;;;27.64;40.37;98837.22;4954792;29;20058;-69
2021/07/03 07:52:34;;;;;;;6.10;4.53;;;;;;;28.58;39.02;98824.44;4940880;29;20038;-69
2021/07/03 07:55:00;;;;;;;6.65;4.82;;;;;;;29.19;37.32;98831.25;4943484;28;20026;-68
2021/07/03 07:57:26;;;;;;;5.10;4.43;;;;;;;29.77;36.35;98827.53;4944551;28;20028;-69
2021/07/03 07:59:52;;;;;;;5.00;4.50;;;;;;;28.94;36.29;98828.19;4935390;29;20533;-69
2021/07/03 08:02:17;;;;;;;5.93;4.25;;;;;;;29.27;35.38;98820.69;4949789;29;20127;-69
2021/07/03 08:04:42;;;;;;;8.52;4.43;;;;;;;29.51;36.02;98824.69;4939209;29;20468;-69
2021/07/03 08:07:08;;;;;;;6.35;3.63;;;;;;;29.81;35.81;98820.91;4947110;28;20028;-69
2021/07/03 08:09:33;;;;;;;5.88;4.65;;;;;;;31.25;32.95;98811.91;4942972;29;20051;-69
2021/07/03 08:11:59;;;;;;;5.20;3.85;;;;;;;32.72;30.57;98813.25;4948928;29;20023;-69
2021/07/03 08:14:24;;;;;;;5.63;3.78;;;;;;;32.85;29.97;98818.97;4936646;28;20030;-70
2021/07/03 08:16:50;;;;;;;4.32;3.92;;;;;;;33.56;28.20;98821.91;4938795;29;20031;-69
2021/07/03 08:19:16;;;;;;;7.20;3.78;;;;;;;33.81;27.39;98822.66;4945970;28;20027;-70
2021/07/03 08:21:42;;;;;;;7.53;3.83;;;;;;;32.62;30.08;98809.91;4946726;29;20027;-70
2021/07/03 08:24:07;;;;;;;5.95;4.10;;;;;;;32.81;29.40;98801.53;4952841;28;20023;-70
2021/07/03 08:26:33;;;;;;;6.53;3.92;;;;;;;32.87;28.37;98795.47;4951042;29;20030;-70
2021/07/03 08:28:58;;;;;;;5.20;4.05;;;;;;;32.76;29.16;98798.50;4941171;29;20038;-69
2021/07/03 08:31:24;;;;;;;6.72;4.05;;;;;;;32.84;28.61;98798.50;4944571;28;20477;-69
2021/07/03 08:33:49;;;;;;;4.10;3.80;;;;;;;32.49;29.52;98797.84;4947693;29;20031;-69
2021/07/03 08:36:15;;;;;;;4.78;4.28;;;;;;;32.44;29.73;98794.78;4938098;28;20036;-70
2021/07/03 08:38:40;;;;;;;4.65;4.25;;;;;;;32.76;28.99;98790.47;4950304;28;20023;-69
2021/07/03 08:41:06;;;;;;;6.20;3.47;;;;;;;32.74;30.01;98797.84;4941824;29;20046;-69
2021/07/03 08:43:31;;;;;;;5.03;3.85;;;;;;;33.33;26.80;98795.75;4952413;28;20031;-69
2021/07/03 08:45:58;;;;;;;4.72;3.67;;;;;;;33.46;27.83;98790.72;4940644;29;20087;-69
2021/07/03 08:48:24;;;;;;;4.70;3.83;;;;;;;33.86;26.23;98791.53;4952358;28;20111;-72
2021/07/03 08:50:49;;;;;;;7.55;3.63;;;;;;;32.49;28.62;98781.75;4939626;28;20420;-72
2021/07/03 08:53:14;;;;;;;6.18;4.03;;;;;;;33.90;25.19;98786.66;4945421;28;20115;-71
2021/07/03 08:55:40;;;;;;;3.78;3.33;;;;;;;30.64;27.68;98792.22;4934093;29;20123;-71
2021/07/03 08:58:06;;;;;;;4.80;3.45;;;;;;;31.55;29.04;98798.03;4949452;29;20039;-71
2021/07/03 09:00:36;;;;;;;3.55;2.92;;;;;;;28.78;28.35;98805.75;4937578;28;20078;-72
2021/07/03 09:03:17;;;;;;;3.72;3.30;;;;;;;27.92;31.46;98786.88;4947270;28;20032;-71
2021/07/03 09:05:50;;;;;;;7.15;3.78;;;;;;;27.91;33.32;98796.69;4948950;29;20027;-71
2021/07/03 09:08:17;;;;;;;6.68;3.45;;;;;;;28.17;33.52;98790.81;4941564;28;20070;-71
2021/07/03 09:10:42;;;;;;;4.53;3.85;;;;;;;31.00;30.61;98793.03;4953449;28;20484;-71
2021/07/03 09:13:08;;;;;;;5.18;3.70;;;;;;;30.87;29.82;98787.25;4945735;29;20090;-71
2021/07/03 09:15:37;;;;;;;7.38;3.97;;;;;;;30.36;30.77;98789.63;4946716;28;20385;-71
2021/07/03 09:18:05;;;;;;;3.60;3.30;;;;;;;31.26;30.10;98787.66;4952834;29;20034;-71
2021/07/03 09:20:42;;;;;;;6.30;3.97;;;;;;;33.05;28.30;98781.06;4941440;28;20031;-72
2021/07/03 09:23:14;;;;;;;4.45;3.63;;;;;;;34.16;25.85;98775.59;4950041;28;20035;-72
2021/07/03 09:25:43;;;;;;;5.25;4.30;;;;;;;31.92;28.77;98768.22;4949675;29;20019;-72
2021/07/03 09:28:15;;;;;;;4.63;4.22;;;;;;;32.54;29.08;98764.28;4941891;28;20031;-72
2021/07/03 09:30:46;;;;;;;4.00;3.55;;;;;;;34.46;25.65;98761.25;4941882;29;20027;-72
2021/07/03 09:33:22;;;;;;;4.15;3.75;;;;;;;32.06;30.33;98760.53;4949386;28;20043;-71
2021/07/03 09:35:57;;;;;;;4.55;3.50;;;;;;;31.87;29.00;98765.19;4950279;29;20023;-72
2021/07/03 09:38:35;;;;;;;3.67;3.38;;;;;;;33.91;26.83;98753.38;4941028;28;20123;-71
2021/07/03 09:41:11;;;;;;;4.13;3.83;;;;;;;35.38;25.13;98750.25;4950811;29;20660;-71
2021/07/03 09:43:49;;;;;;;5.07;3.92;;;;;;;35.24;24.76;98751.09;4948954;29;20031;-71
2021/07/03 09:46:22;;;;;;;4.07;3.67;;;;;;;35.05;25.65;98748.97;4944752;28;20022;-72
2021/07/03 09:48:49;;;;;;;4.22;3.83;;;;;;;35.95;24.71;98746.88;4937858;29;20042;-72
2021/07/03 09:51:14;;;;;;;5.55;3.80;;;;;;;35.45;25.58;98751.22;4945867;29;20067;-72
2021/07/03 09:53:40;;;;;;;6.77;3.60;;;;;;;35.12;26.43;98749.91;4945306;29;20031;-71
2021/07/03 09:56:06;;;;;;;4.07;3.28;;;;;;;34.12;26.98;98752.75;4952312;29;20286;-71
2021/07/03 09:58:31;;;;;;;4.57;4.05;;;;;;;35.03;25.67;98747.31;4940769;28;20030;-73
2021/07/03 10:00:57;;;;;;;5.85;3.70;;;;;;;34.00;27.95;98749.66;4950329;28;20481;-72
2021/07/03 10:03:22;;;;;;;4.18;3.20;;;;;;;35.34;25.27;98735.50;4937294;29;20023;-72
2021/07/03 10:05:51;;;;;;;3.38;3.08;;;;;;;35.89;24.22;98727.91;4949862;29;20027;-71
2021/07/03 10:08:21;;;;;;;3.33;3.03;;;;;;;36.36;23.59;98721.09;4939999;28;20041;-71
2021/07/03 10:10:54;;;;;;;3.42;3.08;;;;;;;35.34;24.79;98719.31;4941750;29;20026;-71
2021/07/03 10:13:22;;;;;;;3.75;3.45;;;;;;;33.80;26.27;98718.81;4955277;29;20023;-72
2021/07/03 10:15:47;;;;;;;5.03;3.53;;;;;;;35.81;24.07;98709.97;4956249;28;20055;-73
2021/07/03 10:18:14;;;;;;;8.70;4.05;;;;;;;34.23;25.75;98717.34;4940425;28;20454;-73
2021/07/03 10:20:40;;;;;;;5.25;3.75;;;;;;;35.38;25.24;98712.53;4952740;28;20516;-73
2021/07/03 10:23:05;;;;;;;4.82;3.90;;;;;;;34.19;25.47;98716.06;4944125;29;20081;-73
2021/07/03 10:25:42;;;;;;;7.00;3.67;;;;;;;36.29;23.67;98715.66;4942509;28;20170;-71
2021/07/03 10:28:12;;;;;;;4.13;3.28;;;;;;;34.57;23.56;98724.16;4941974;29;20473;-71
2021/07/03 10:30:41;;;;;;;3.38;3.08;;;;;;;34.04;24.28;98728.59;4937075;29;20023;-69
2021/07/03 10:33:18;;;;;;;3.85;3.17;;;;;;;33.96;24.42;98727.66;4942742;29;20470;-70
2021/07/03 10:35:54;;;;;;;3.10;2.90;;;;;;;32.28;26.99;98716.97;4936756;29;20024;-70
2021/07/03 10:38:25;;;;;;;3.60;3.25;;;;;;;32.53;27.09;98707.09;4952427;29;20559;-70
2021/07/03 10:41:00;;;;;;;3.50;3.10;;;;;;;35.44;23.58;98710.94;4941825;29;20039;-70
2021/07/03 10:43:25;;;;;;;3.95;3.42;;;;;;;31.68;26.67;98710.00;4946396;28;20174;-70
2021/07/03 10:45:53;;;;;;;4.20;3.33;;;;;;;31.29;27.80;98700.84;4941147;29;20516;-69
2021/07/03 10:48:23;;;;;;;4.65;2.67;;;;;;;35.13;22.83;98692.31;4937492;29;20168;-70
2021/07/03 10:50:53;;;;;;;3.67;3.38;;;;;;;32.54;25.90;98691.84;4951157;29;20051;-71
2021/07/03 10:53:30;;;;;;;3.45;2.78;;;;;;;36.39;24.07;98683.75;4945393;29;20019;-70
2021/07/03 10:56:16;;;;;;;3.42;2.80;;;;;;;35.71;23.40;98685.16;4940954;28;20503;-71
2021/07/03 10:58:43;;;;;;;3.28;2.80;;;;;;;35.56;23.07;98692.47;4940378;29;20066;-70
2021/07/03 11:01:11;;;;;;;3.67;3.38;;;;;;;35.47;22.06;98689.88;4948067;28;20028;-70
2021/07/03 11:03:47;;;;;;;3.25;2.80;;;;;;;33.98;24.96;98687.97;4936624;29;20028;-70
2021/07/03 11:06:20;;;;;;;4.80;2.80;;;;;;;35.73;21.91;98683.09;4936132;29;20097;-70
2021/07/03 11:08:47;;;;;;;4.38;2.65;;;;;;;35.25;21.36;98683.56;4951141;28;20024;-70
2021/07/03 11:11:14;;;;;;;2.78;2.50;;;;;;;33.43;23.46;98672.84;4944014;29;20027;-70
2021/07/03 11:13:40;;;;;;;3.67;2.92;;;;;;;33.71;24.36;98675.88;4943860;28;20106;-71
2021/07/03 11:16:11;;;;;;;4.72;3.22;;;;;;;34.84;23.49;98671.56;4950899;29;20110;-70
2021/07/03 11:18:47;;;;;;;3.10;2.80;;;;;;;34.59;23.26;98673.69;4939381;28;20055;-68
2021/07/03 11:21:15;;;;;;;4.05;2.95;;;;;;;33.15;25.15;98668.91;4954983;28;20030;-68
2021/07/03 11:23:40;;;;;;;5.75;2.50;;;;;;;33.37;25.41;98673.50;4943443;28;20055;-68
2021/07/03 11:26:14;;;;;;;3.42;3.13;;;;;;;34.88;24.69;98673.72;4950785;29;20058;-68
2021/07/03 11:28:40;;;;;;;2.92;2.72;;;;;;;33.66;24.26;98669.34;4939111;29;20030;-69
2021/07/03 11:31:07;;;;;;;3.00;2.70;;;;;;;34.17;23.90;98658.91;4948008;28;20035;-70
2021/07/03 11:33:35;;;;;;;3.00;2.70;;;;;;;33.55;23.68;98661.69;4946317;29;20027;-71
2021/07/03 11:38:57;;;;;;;3.08;2.72;;;;;;;31.16;26.48;98658.41;5109396;27;20442;-81
2021/07/03 11:41:24;;;;;;;3.58;2.88;;;;;;;30.44;29.10;98661.34;5099953;28;20396;-72
2021/07/03 11:44:04;;;;;;;4.20;2.80;;;;;;;29.09;28.30;98659.63;5102732;28;20024;-72
2021/07/03 11:46:30;;;;;;;3.65;2.85;;;;;;;31.70;26.12;98651.72;5092288;28;20111;-72
2021/07/03 11:48:56;;;;;;;3.08;2.88;;;;;;;33.11;24.33;98651.47;5103292;28;20532;-72
2021/07/03 11:51:22;;;;;;;3.75;3.05;;;;;;;33.65;23.54;98646.16;5098607;28;20435;-72
2021/07/03 11:53:51;;;;;;;3.20;2.63;;;;;;;33.62;23.72;98649.22;5096009;28;20052;-76
2021/07/03 11:56:16;;;;;;;2.95;2.58;;;;;;;32.67;25.05;98649.22;5105352;28;20049;-76
2021/07/03 11:58:43;;;;;;;4.40;3.05;;;;;;;31.53;24.83;98639.31;5093094;28;20059;-76
2021/07/03 12:01:15;;;;;;;4.97;2.25;;;;;;;30.33;27.11;98634.88;5101130;28;20024;-75
2021/07/03 12:03:44;;;;;;;3.10;2.85;;;;;;;28.93;28.44;98634.41;5101201;28;20063;-75
2021/07/03 12:06:10;;;;;;;3.08;2.85;;;;;;;28.76;29.34;98629.84;5090947;28;20370;-77
2021/07/03 12:08:37;;;;;;;4.40;3.05;;;;;;;28.24;31.74;98620.53;5104143;28;20082;-70
2021/07/03 12:11:22;;;;;;;3.38;3.10;;;;;;;27.67;32.07;98623.09;5095469;28;20019;-78
2021/07/03 12:13:50;;;;;;;3.15;2.85;;;;;;;28.17;29.59;98620.28;5095402;28;20024;-78
2021/07/03 12:16:18;;;;;;;2.72;2.53;;;;;;;28.68;29.71;98617.25;5105140;28;20035;-78
2021/07/03 12:18:48;;;;;;;5.70;3.35;;;;;;;28.40;29.44;98620.84;5092881;28;20095;-75
2021/07/03 12:21:15;;;;;;;2.72;2.53;;;;;;;28.66;29.71;98611.19;5108471;28;20019;-73
2021/07/03 12:23:47;;;;;;;4.90;2.92;;;;;;;28.40;30.17;98616.34;5095965;28;20024;-73
2021/07/03 12:26:13;;;;;;;4.60;3.08;;;;;;;28.15;30.11;98606.28;5105043;28;20024;-71
2021/07/03 12:29:01;;;;;;;3.70;3.00;;;;;;;28.17;31.31;98610.47;5075252;28;20077;-72
2021/07/03 12:31:34;;;;;;;3.03;2.72;;;;;;;27.87;31.47;98603.50;5098357;28;20020;-71
2021/07/03 12:34:01;;;;;;;5.57;3.00;;;;;;;27.86;31.96;98596.50;5103357;28;20038;-71
2021/07/03 12:36:26;;;;;;;3.65;3.08;;;;;;;28.36;32.58;98601.63;5091498;28;20476;-72
2021/07/03 12:39:11;;;;;;;3.33;2.80;;;;;;;27.88;29.63;98594.53;5103027;28;20074;-72
2021/07/03 12:41:38;;;;;;;3.03;2.65;;;;;;;27.99;29.52;98590.03;5090316;28;20358;-72
2021/07/03 12:44:04;;;;;;;3.85;3.20;;;;;;;27.48;31.42;98586.66;5088301;28;20028;-72
2021/07/03 12:46:38;;;;;;;3.15;2.65;;;;;;;27.31;31.68;98584.66;5104885;28;20388;-72
2021/07/03 12:49:05;;;;;;;3.60;3.08;;;;;;;27.60;30.78;98579.38;5086070;28;20020;-72
2021/07/03 12:51:36;;;;;;;4.28;2.90;;;;;;;27.47;31.80;98578.81;5083739;28;20523;-72
2021/07/03 12:54:04;;;;;;;3.42;3.13;;;;;;;27.33;31.64;98575.59;5089989;28;20027;-71
2021/07/03 12:56:30;;;;;;;3.17;2.88;;;;;;;27.90;33.62;98576.59;5076509;28;20574;-70
2021/07/03 12:59:04;;;;;;;3.17;2.88;;;;;;;28.30;31.09;98572.88;5088737;28;20040;-70
2021/07/03 13:01:35;;;;;;;3.55;3.10;;;;;;;28.39;29.99;98571.19;5085079;28;20080;-71
2021/07/03 13:04:01;;;;;;;6.15;3.10;;;;;;;28.74;31.75;98569.63;5079391;28;20024;-71
2021/07/03 13:06:27;;;;;;;19.98;14.27;;;;;;;28.62;30.97;98567.16;5090791;28;20012;-70
2021/07/03 13:08:54;;;;;;;7.82;3.22;;;;;;;28.19;29.50;98570.38;5079680;28;20622;-70
2021/07/03 13:11:21;;;;;;;3.65;3.35;;;;;;;27.99;30.33;98561.56;5085070;28;20477;-70
2021/07/03 13:13:46;;;;;;;5.22;2.92;;;;;;;28.02;31.10;98558.63;5069051;22;20053;-71
2021/07/03 13:16:11;;;;;;;3.47;3.00;;;;;;;28.23;32.01;98554.91;5030466;28;20030;-73
2021/07/03 13:18:37;;;;;;;3.22;2.92;;;;;;;28.26;30.07;98568.81;5017730;28;20479;-73
2021/07/03 13:21:02;;;;;;;4.28;2.80;;;;;;;26.30;32.69;98559.81;5030030;28;20100;-73
2021/07/03 13:23:31;;;;;;;3.63;2.92;;;;;;;26.82;30.03;98562.41;5014810;28;20060;-73
2021/07/03 13:25:57;;;;;;;3.95;2.90;;;;;;;27.18;30.63;98553.03;5019473;28;20529;-73
2021/07/03 13:28:22;;;;;;;11.63;3.30;;;;;;;27.52;30.56;98552.63;5030484;28;20104;-73
2021/07/03 13:30:48;;;;;;;5.72;2.97;;;;;;;26.55;30.76;98549.75;5018822;28;20389;-74
2021/07/03 13:33:14;;;;;;;3.58;2.80;;;;;;;27.19;30.74;98541.41;5018786;28;20026;-73
2021/07/03 13:35:39;;;;;;;3.03;2.72;;;;;;;27.09;32.66;98537.88;5002018;28;20104;-73
2021/07/03 13:38:04;;;;;;;3.65;2.85;;;;;;;27.64;31.83;98527.53;5024685;28;20032;-74
2021/07/03 13:40:30;;;;;;;3.42;3.13;;;;;;;27.09;31.50;98532.56;5017363;28;20018;-74
2021/07/03 13:42:56;;;;;;;4.47;2.80;;;;;;;27.59;30.74;98529.78;5027740;28;20029;-74
2021/07/03 13:45:21;;;;;;;3.53;2.85;;;;;;;27.01;31.13;98535.03;5023208;28;20029;-74
2021/07/03 13:47:46;;;;;;;2.80;2.60;;;;;;;28.02;31.69;98541.81;5020582;28;20072;-74
2021/07/03 13:50:12;;;;;;;3.13;2.70;;;;;;;26.54;32.25;98526.78;5030119;28;20067;-73
2021/07/03 13:52:38;;;;;;;3.72;3.35;;;;;;;27.47;31.50;98529.09;5017064;28;20029;-73
2021/07/03 13:55:04;;;;;;;4.57;2.90;;;;;;;28.15;32.02;98537.00;5026558;28;20021;-73
2021/07/03 13:57:29;;;;;;;2.70;2.50;;;;;;;28.30;29.88;98532.88;5023862;28;20030;-73
2021/07/03 13:59:54;;;;;;;2.35;2.15;;;;;;;27.31;29.38;98532.28;5018354;28;20048;-73
2021/07/03 14:02:20;;;;;;;2.88;2.58;;;;;;;28.05;29.11;98541.53;5029833;28;20462;-73
2021/07/03 14:04:45;;;;;;;3.92;3.00;;;;;;;28.05;30.25;98541.53;5017757;28;20025;-73
2021/07/03 14:07:10;;;;;;;2.97;2.75;;;;;;;28.20;31.49;98542.75;5033219;28;20014;-73
2021/07/03 14:09:36;;;;;;;2.63;2.33;;;;;;;27.97;30.07;98544.06;5032683;28;20501;-74
2021/07/03 14:12:02;;;;;;;5.78;3.00;;;;;;;27.62;30.32;98540.16;5033302;28;20493;-73
2021/07/03 14:14:27;;;;;;;2.83;2.53;;;;;;;27.76;33.04;98536.25;5032783;28;20111;-73
2021/07/03 14:16:53;;;;;;;3.92;3.45;;;;;;;27.77;30.77;98532.59;5032893;28;20041;-73
2021/07/03 14:19:18;;;;;;;3.40;2.67;;;;;;;27.87;30.09;98528.94;5033073;28;20026;-74
2021/07/03 14:21:45;;;;;;;4.82;2.83;;;;;;;27.75;30.97;98537.22;5033162;28;20030;-73
2021/07/03 14:24:11;;;;;;;3.88;2.75;;;;;;;27.47;30.17;98537.06;5032944;28;20217;-74
2021/07/03 14:26:36;;;;;;;5.07;4.53;;;;;;;27.69;30.28;98522.63;5032807;28;20021;-74
2021/07/03 14:29:03;;;;;;;2.70;2.50;;;;;;;27.93;29.52;98517.69;5032949;28;20025;-74
2021/07/03 14:31:28;;;;;;;3.95;2.80;;;;;;;28.40;30.41;98525.72;5032807;28;20623;-73
2021/07/03 14:33:54;;;;;;;2.60;2.38;;;;;;;28.50;27.75;98524.84;5032800;28;20112;-74
2021/07/03 14:36:19;;;;;;;5.38;2.60;;;;;;;28.84;28.26;98512.59;5032313;28;20128;-74
2021/07/03 14:38:45;;;;;;;3.03;2.80;;;;;;;28.65;28.36;98513.53;5032911;28;20026;-73
2021/07/03 14:41:10;;;;;;;2.85;2.53;;;;;;;28.24;28.87;98521.94;5032645;28;20395;-74
2021/07/03 14:43:37;;;;;;;2.63;2.42;;;;;;;28.31;29.30;98515.91;5032589;28;20034;-74
2021/07/03 14:46:03;;;;;;;2.83;2.28;;;;;;;27.80;30.42;98516.31;5032429;28;20026;-74
2021/07/03 14:48:28;;;;;;;3.00;2.30;;;;;;;27.25;30.59;98516.88;5032652;28;20486;-73
2021/07/03 14:50:54;;;;;;;3.38;3.08;;;;;;;27.09;29.87;98509.47;5032524;28;20045;-74
2021/07/03 14:53:19;;;;;;;2.75;2.53;;;;;;;27.04;30.21;98513.50;5032452;28;20075;-73
2021/07/03 14:55:44;;;;;;;4.85;2.50;;;;;;;27.92;29.78;98507.19;5032396;28;20032;-73
2021/07/03 14:58:10;;;;;;;2.50;2.30;;;;;;;28.35;28.76;98505.81;5032123;28;20080;-78
2021/07/03 15:00:35;;;;;;;3.60;2.53;;;;;;;28.31;28.17;98499.91;5032306;28;20059;-78
2021/07/03 15:03:01;;;;;;;3.05;2.28;;;;;;;28.22;28.69;98500.78;5032464;28;20026;-78
2021/07/03 15:05:26;;;;;;;2.33;2.13;;;;;;;28.03;27.26;98498.19;5032275;28;20033;-78
2021/07/03 15:07:51;;;;;;;3.00;2.75;;;;;;;27.81;27.01;98496.72;5032188;28;20028;-78
2021/07/03 15:10:17;;;;;;;2.80;2.50;;;;;;;27.50;29.24;98488.03;5032237;28;20104;-78
2021/07/03 15:12:42;;;;;;;3.28;2.40;;;;;;;28.74;28.27;98482.47;5031675;28;20029;-78
2021/07/03 15:15:08;;;;;;;4.18;2.50;;;;;;;28.55;28.68;98485.25;5032182;28;20092;-78
2021/07/03 15:17:34;;;;;;;3.13;2.80;;;;;;;29.26;28.38;98480.03;5031943;28;20441;-78
2021/07/03 15:19:59;;;;;;;2.83;2.63;;;;;;;28.22;29.19;98490.13;5032152;28;20026;-78
2021/07/03 15:22:24;;;;;;;3.63;2.42;;;;;;;27.58;30.54;98490.84;5032023;28;20410;-78
2021/07/03 15:24:50;;;;;;;3.38;2.63;;;;;;;27.35;30.58;98488.47;5031998;28;20033;-78
2021/07/03 15:27:15;;;;;;;2.60;2.40;;;;;;;27.91;30.78;98487.72;5031752;28;20026;-78
2021/07/03 15:29:41;;;;;;;3.50;3.20;;;;;;;27.63;30.12;98483.25;5032034;28;20048;-78
2021/07/03 15:32:06;;;;;;;2.70;2.50;;;;;;;27.16;30.49;98477.81;5031939;28;20076;-78
2021/07/03 15:34:32;;;;;;;3.25;2.95;;;;;;;27.60;31.32;98478.22;5031764;28;20099;-78
2021/07/03 15:36:57;;;;;;;3.78;2.50;;;;;;;27.98;29.84;98471.16;5031790;28;20029;-78
2021/07/03 15:39:23;;;;;;;3.47;3.08;;;;;;;27.70;29.98;98479.03;5031885;28;20078;-74
2021/07/03 15:41:49;;;;;;;4.07;2.47;;;;;;;28.08;28.48;98477.28;5031930;28;20554;-74
2021/07/03 15:44:14;;;;;;;3.72;2.50;;;;;;;28.23;29.74;98478.47;5031575;28;20025;-74
2021/07/03 15:46:40;;;;;;;5.57;2.80;;;;;;;28.39;28.37;98473.41;5030503;28;20044;-74
2021/07/03 15:49:05;;;;;;;2.70;2.50;;;;;;;28.38;28.34;98477.06;5031835;28;20021;-75
2021/07/03 15:51:31;;;;;;;2.92;2.72;;;;;;;27.89;31.24;98480.84;5031832;28;20029;-74
2021/07/03 15:53:56;;;;;;;2.53;2.33;;;;;;;27.27;29.41;98483.03;5031712;28;20026;-74
2021/07/03 15:56:21;;;;;;;5.60;3.00;;;;;;;26.02;31.33;98478.19;5031593;28;20083;-74
2021/07/03 15:58:47;;;;;;;2.70;2.50;;;;;;;26.62;31.22;98471.16;5031723;28;20064;-74
2021/07/03 16:01:12;;;;;;;3.30;2.83;;;;;;;26.25;33.27;98471.69;5031650;28;20042;-74
2021/07/03 16:03:37;;;;;;;3.58;3.28;;;;;;;27.10;32.23;98467.75;5031553;28;20060;-74
2021/07/03 16:06:03;;;;;;;5.05;3.22;;;;;;;27.76;31.07;98465.19;5031964;28;20083;-74
2021/07/03 16:08:28;;;;;;;4.65;3.20;;;;;;;26.85;33.41;98461.97;5031595;28;20021;-74
2021/07/03 16:10:53;;;;;;;3.25;2.95;;;;;;;27.66;33.49;98472.34;5031623;28;20017;-74
2021/07/03 16:13:19;;;;;;;3.53;2.90;;;;;;;27.80;33.81;98468.38;5031344;28;20307;-74
2021/07/03 16:15:44;;;;;;;3.75;2.85;;;;;;;28.02;32.55;98461.88;5031507;28;20022;-74
2021/07/03 16:18:10;;;;;;;4.43;3.25;;;;;;;27.91;32.32;98458.41;5031346;28;20467;-74
2021/07/03 16:20:35;;;;;;;2.95;2.75;;;;;;;27.53;31.99;98461.13;5031718;28;20032;-74
2021/07/03 16:23:01;;;;;;;3.20;2.83;;;;;;;26.98;33.53;98461.69;5030341;28;20544;-74
2021/07/03 16:25:26;;;;;;;3.95;3.63;;;;;;;26.77;32.29;98463.63;5035109;28;20025;-74
2021/07/03 16:27:52;;;;;;;3.88;3.22;;;;;;;26.57;32.72;98462.75;5035106;28;20025;-74
2021/07/03 16:30:19;;;;;;;4.15;3.17;;;;;;;26.79;32.57;98457.19;5035089;28;20470;-74
2021/07/03 16:32:45;;;;;;;3.15;2.70;;;;;;;26.61;32.81;98453.53;5035085;28;20056;-74
2021/07/03 16:35:12;;;;;;;4.43;3.25;;;;;;;26.51;33.95;98457.97;5025190;28;20034;-74
2021/07/03 16:37:37;;;;;;;6.75;3.08;;;;;;;26.47;34.44;98456.56;5012605;28;20105;-78
2021/07/03 16:40:04;;;;;;;6.90;3.33;;;;;;;26.21;35.95;98457.03;5030503;28;20122;-78
2021/07/03 16:42:30;;;;;;;5.70;3.72;;;;;;;26.16;38.35;98464.56;5006551;28;20495;-77
2021/07/03 16:44:56;;;;;;;3.85;3.55;;;;;;;25.71;37.58;98464.00;5023319;28;20029;-76
2021/07/03 16:47:21;;;;;;;3.45;3.15;;;;;;;25.73;36.79;98462.91;5016828;28;20391;-76
2021/07/03 16:49:47;;;;;;;3.85;3.55;;;;;;;25.37;38.15;98467.69;5006659;28;20026;-76
2021/07/03 16:52:12;;;;;;;5.45;3.75;;;;;;;25.07;38.56;98467.59;5013525;28;20022;-74
2021/07/03 16:54:39;;;;;;;5.30;3.83;;;;;;;25.11;38.40;98461.91;5022499;28;20018;-76
2021/07/03 16:57:04;;;;;;;5.82;3.65;;;;;;;25.04;39.48;98465.13;5029177;28;20065;-76
2021/07/03 16:59:29;;;;;;;3.33;3.05;;;;;;;24.76;39.81;98461.28;5018122;28;20057;-73
2021/07/03 17:01:55;;;;;;;3.50;3.20;;;;;;;24.80;41.69;98468.84;5028922;28;20391;-78
2021/07/03 17:04:20;;;;;;;3.70;3.40;;;;;;;24.80;42.52;98466.22;5022317;28;20037;-78
2021/07/03 17:06:45;;;;;;;3.50;3.20;;;;;;;24.94;42.50;98458.91;5021731;28;20030;-77
2021/07/03 17:09:11;;;;;;;7.60;4.50;;;;;;;24.81;41.63;98461.75;5005354;28;20595;-73
2021/07/03 17:11:36;;;;;;;3.90;3.50;;;;;;;24.77;42.03;98458.50;5026877;28;20037;-73
2021/07/03 17:14:01;;;;;;;4.32;3.80;;;;;;;24.52;40.78;98457.00;5014174;28;20021;-73
2021/07/03 17:16:27;;;;;;;5.78;3.80;;;;;;;24.54;40.70;98451.56;5011603;28;20068;-74
2021/07/03 17:18:52;;;;;;;5.50;3.95;;;;;;;24.52;40.61;98453.50;5022363;28;20455;-74
2021/07/03 17:21:18;;;;;;;5.53;3.45;;;;;;;24.36;40.95;98460.00;5019728;28;20493;-74
2021/07/03 17:23:43;;;;;;;4.45;3.60;;;;;;;24.40;43.44;98457.13;5018318;28;20021;-74
2021/07/03 17:26:09;;;;;;;6.55;4.05;;;;;;;24.28;44.62;98457.09;5026286;28;20514;-74
2021/07/03 17:28:34;;;;;;;5.40;3.55;;;;;;;24.34;44.35;98464.56;5025241;28;20092;-74
2021/07/03 17:31:00;;;;;;;7.57;3.97;;;;;;;24.20;44.38;98470.09;5023238;28;20555;-74
2021/07/03 17:33:25;;;;;;;8.02;4.00;;;;;;;24.29;44.13;98469.38;5030427;28;20022;-74
2021/07/03 17:35:51;;;;;;;4.40;3.72;;;;;;;24.16;44.68;98473.94;5018983;28;20023;-74
2021/07/03 17:38:16;;;;;;;6.50;3.85;;;;;;;23.99;45.95;98474.44;5024928;28;20033;-76
2021/07/03 17:40:42;;;;;;;6.97;4.10;;;;;;;24.02;45.72;98469.72;5025840;28;20029;-76
2021/07/03 17:43:08;;;;;;;4.20;3.80;;;;;;;23.95;46.34;98475.63;5013120;28;20055;-76
2021/07/03 17:45:33;;;;;;;4.05;3.47;;;;;;;23.74;46.90;98479.00;5000211;28;20040;-76
2021/07/03 17:47:58;;;;;;;8.60;3.95;;;;;;;23.67;47.18;98472.47;5027020;28;20083;-76
2021/07/03 17:50:24;;;;;;;4.07;3.63;;;;;;;23.70;47.30;98469.59;5004301;28;20128;-76
2021/07/03 17:52:50;;;;;;;4.72;3.65;;;;;;;23.71;47.94;98463.34;5002077;28;20033;-74
2021/07/03 17:55:15;;;;;;;7.55;4.93;;;;;;;23.51;47.16;98471.94;5004980;28;20030;-75
2021/07/03 17:57:42;;;;;;;5.70;4.40;;;;;;;23.48;47.83;98470.34;5001485;28;20034;-75
2021/07/03 18:00:10;;;;;;;4.78;4.25;;;;;;;23.51;47.92;98471.94;4999437;28;20449;-74
2021/07/03 18:02:37;;;;;;;5.88;3.88;;;;;;;23.44;49.50;98468.88;5000898;28;20487;-74
2021/07/03 18:05:03;;;;;;;6.97;4.25;;;;;;;23.40;49.13;98470.06;5000643;28;20036;-75
2021/07/03 18:07:29;;;;;;;11.23;5.03;;;;;;;23.32;48.37;98473.31;5003395;28;20112;-74
2021/07/03 18:09:54;;;;;;;8.55;4.32;;;;;;;23.33;49.25;98472.34;5002498;28;20022;-75
2021/07/03 18:12:19;;;;;;;10.80;4.95;;;;;;;23.18;49.32;98475.31;5001582;28;20057;-74
2021/07/03 18:14:44;;;;;;;7.95;4.60;;;;;;;23.21;49.79;98480.34;5004348;28;20107;-75
2021/07/03 18:17:11;;;;;;;6.18;4.50;;;;;;;23.17;51.27;98474.47;4999709;28;20029;-74
2021/07/03 18:19:37;;;;;;;5.45;4.95;;;;;;;23.07;51.36;98476.09;5002297;28;20072;-74
2021/07/03 18:22:03;;;;;;;7.90;5.78;;;;;;;23.14;53.91;98479.97;5001578;28;20030;-74
2021/07/03 18:24:28;;;;;;;5.93;5.32;;;;;;;23.11;54.49;98493.41;5000165;28;20032;-74
2021/07/03 18:26:53;;;;;;;7.40;4.45;;;;;;;22.77;54.08;98503.78;5000376;28;20117;-74
2021/07/03 18:29:19;;;;;;;6.30;5.00;;;;;;;22.35;56.09;98488.38;5002423;28;20049;-75
2021/07/03 18:31:44;;;;;;;5.63;4.45;;;;;;;22.13;58.12;98497.78;5002016;28;20136;-74
2021/07/03 18:34:09;;;;;;;10.77;4.90;;;;;;;21.79;60.98;98496.59;5001498;28;20042;-75
2021/07/03 18:36:35;;;;;;;6.82;4.97;;;;;;;21.46;64.05;98515.53;5000656;28;20045;-75